METAR AND TAF INFORMATION
METAR FOR KLXY
ADDS - METARS form results

(2302 UTC 22 May 2018)
Data provider http://aviationweather.gov/adds/metars/
 
METAR text: KLXY 222255Z AUTO 12003G14KT 10SM CLR 30/19 A2993 RMK AO2 T02960190
Conditions at: KLXY (MEXIA LIMESTONE , TX, US) observed 2255 UTC 22 May 2018
Temperature: 29.6°C (85°F)
Dewpoint: 19.0°C (66°F) [RH = 53%]
Pressure (altimeter): 29.93 inches Hg (1013.6 mb)
Winds: from the ESE (120 degrees) at 3 MPH (3 knots; 1.6 m/s)
gusting to 16 MPH (14 knots; 7.3 m/s)
Visibility: 10 or more miles (16+ km)
Ceiling: at least 12,000 feet AGL
Clouds: sky clear below 12,000 feet AGL
Weather: automated observation with no human augmentation;
there may or may not be significant weather present at this time

METAR text: KLXY 222235Z AUTO 10004G14KT 10SM CLR 30/19 A2993 RMK AO2 T02990191
Conditions at: KLXY (MEXIA LIMESTONE , TX, US) observed 2235 UTC 22 May 2018
Temperature: 29.9°C (86°F)
Dewpoint: 19.1°C (66°F) [RH = 52%]
Pressure (altimeter): 29.93 inches Hg (1013.6 mb)
Winds: from the E (100 degrees) at 5 MPH (4 knots; 2.1 m/s)
gusting to 16 MPH (14 knots; 7.3 m/s)
Visibility: 10 or more miles (16+ km)
Ceiling: at least 12,000 feet AGL
Clouds: sky clear below 12,000 feet AGL
Weather: automated observation with no human augmentation;
there may or may not be significant weather present at this time

METAR text: KLXY 222215Z AUTO 13007G14KT 100V180 10SM CLR 30/19 A2994 RMK AO2 T03000194
Conditions at: KLXY (MEXIA LIMESTONE , TX, US) observed 2215 UTC 22 May 2018
Temperature: 30.0°C (86°F)
Dewpoint: 19.4°C (67°F) [RH = 53%]
Pressure (altimeter): 29.94 inches Hg (1014.0 mb)
Winds: from the SE (130 degrees) at 8 MPH (7 knots; 3.6 m/s)
gusting to 16 MPH (14 knots; 7.3 m/s)
Visibility: 10 or more miles (16+ km)
Ceiling: at least 12,000 feet AGL
Clouds: sky clear below 12,000 feet AGL
Weather: automated observation with no human augmentation;
there may or may not be significant weather present at this time

 AIRPORT MAP

 RUNWAY INFORMATION
Runway 18 Runway length 4002 ft Runway width 60 ft
Runway elevation 544 ft Runway displaced threshold 0 ft Runway heading 189
Runway 36 Runway length 4002 ft Runway width 60 ft
Runway elevation 533 ft Runway displaced threshold 0 ft Runway heading 9

 AIRPORT FREQUENCIES
Type A/D Name WACO APP/D Frequency 135.2 MHZ
Type UNIC Name CTAF/UNICO Frequency 122.8 MHZ

 AIRPORT NEAR NAVIGATION AIDS


... ... ... ... ... ...

© Copyright 2017 All Rights Reserved. Virtual NATO is in no way affiliated with NATO or any of the NATO Members

NATO Virtual is a volunteer not for profit group of friends with the common interest in promoting enjoyment and education through the simulation of military operations and procedure through the use of operating standards within several flight simulation platforms.

Powered by Virtual Airlines Manager [v2.6.2] Customized by Virtual NATO